Bellingham International Airport

METAR KBLI TAF KBLI
2 °C
°C
-
°C
51m
Età
21:44:20
LT
20:44
UTC
0 ft

1.000

2.000

3.000

4.000

5.000

VFR
<?= Yii::t('app', 'Wind direction') ?> <?= Yii::t('app', 'of'); ?>
VAR
17:04
Tramonto
56%
Umidità
Taglio del vento
Chiuso/Neve
Raggio visivo RWY
Condizione della RWY
Visibilità verticale
Visibilità minima
CAVOK
Tendenza
Correzione
Rapporto speciale
30,46 inHg
QNH
METAR KBLI 301953Z 00000KT 10SM CLR 02/M06 A3046 RMK AO2 SLP326 T00221061
Cielo sereno
0 kt
0 kt
12:00
VFR
13:00
VFR
5 kt
14:00
VFR
5 kt
15:00
VFR
5 kt
16:00
VFR
4 kt
17:00
VFR
4 kt
18:00
VFR
4 kt
10 mi
Vista
No
Base nuvolosa
No
Vento
metar-taf.com/KBLI

Metar-Taf.com

Decodificatore visivo

Noi e le terze parti seguiamo il tuo comportamento su internet con i cookie. Se continui, riteniamo che tu sia d'accordo con la nostra Politica sui cookie.